INFORMACIÓN METAR y TAF
METAR FOR ENBR
ADDS - METARS form results

(0027 UTC 29 May 2020)
Data provider http://aviationweather.gov/metar/data/
 
METAR text: ENBR 290020Z 04003KT CAVOK 07/04 Q1032 RMK WIND 1200FT 04006KT
Conditions at: ENBR (BERGEN/FLESLAND , NO) observed 0020 UTC 29 May 2020
Temperature: 7.0°C (45°F)
Dewpoint: 4.0°C (39°F) [RH = 81%]
Pressure (altimeter): 30.47 inches Hg (1032.0 mb)
Winds: from the NE (40 degrees) at 3 MPH (3 knots; 1.5 m/s)
Visibility: 6 or more miles (10+ km)
Ceiling: ceiling and visibility are OK
Clouds: unknown
Weather: no significant weather observed at this time

METAR text: ENBR 282350Z 01004KT CAVOK 07/04 Q1032 RMK WIND 1200FT 03008KT
Conditions at: ENBR (BERGEN/FLESLAND , NO) observed 2350 UTC 28 May 2020
Temperature: 7.0°C (45°F)
Dewpoint: 4.0°C (39°F) [RH = 81%]
Pressure (altimeter): 30.47 inches Hg (1032.0 mb)
Winds: from the N (10 degrees) at 5 MPH (4 knots; 2.1 m/s)
Visibility: 6 or more miles (10+ km)
Ceiling: ceiling and visibility are OK
Clouds: unknown
Weather: no significant weather observed at this time

Forecast for: ENBR (BERGEN/FLESLAND , NO)
Text: TAF ENBR 2900/2924 32008KT 9999 FEW040
Forecast period: 0000 UTC 29 May 2020 to 0000 UTC 30 May 2020
Forecast type: FROM: standard forecast or significant change
Winds: from the NW (320 degrees) at 9 MPH (8 knots; 4.1 m/s)
Visibility: 6 or more miles 10+ km)
Ceiling: at least 12,000 feet AGL
Clouds: few clouds at 4000 feet AGL
Weather: no significant weather forecast for this period

 MAPA DE AEROPUERTO

 INFORMACIÓN DE PISTA
Pista 17 Longitud 9810 ft Ancho 148 ft
Elevación 165 ft Umbral desplazado 886 ft Rumbo de pista 171
Pista 35 Longitud 9810 ft Ancho 148 ft
Elevación 146 ft Umbral desplazado 889 ft Rumbo de pista 351

 FRECUANCIAS DEL AEROPUERTO
Tipo APP Nombre RADAR Frecuencia 121 MHZ
Tipo ARR Nombre ARR Frecuencia 125 MHZ
Tipo ATIS Nombre ATIS Frecuencia 125.25 MHZ
Tipo DIR Nombre DIRECTOR Frecuencia 118.85 MHZ
Tipo GND Nombre GND Frecuencia 121.9 MHZ
Tipo TWR Nombre TWR Frecuencia 119.1 MHZ

 RADIO AYUDAS DEL AEROPUERTO
Tipo NDB Nombre Askoy Frecuencia 360 KHZ
Tipo NDB Nombre Bratta Frecuencia 336 KHZ
Tipo TACAN Nombre Flesland Frecuencia 114500 KHZ
Tipo VOR-DME Nombre Flesland Frecuencia 115550 KHZ
Tipo VOR-DME Nombre Vollo Frecuencia 114850 KHZ



Powered by Virtual Airlines Manager [v2.6.2]